Time,TemperatureF,DewpointF,PressureIn,WindDirection,WindDirectionDegrees,WindSpeedMPH,WindSpeedGustMPH,Humidity,HourlyPrecipIn,Conditions,Clouds,dailyrainin,SoftwareType,DateUTC
2013-04-10 00:02:00,19.7,15.1,30.30,NNE,21,0.0,2.0,82,0.00,,,0.00,Wunderground v.1.15,2013-04-10 06:02:00,
2013-04-10 00:04:00,19.5,14.9,30.30,NNE,21,1.0,2.0,82,0.00,,,0.00,Wunderground v.1.15,2013-04-10 06:04:00,
2013-04-10 00:08:00,19.5,15.2,30.30,NNE,18,1.0,3.0,83,0.00,,,0.00,Wunderground v.1.15,2013-04-10 06:08:00,
2013-04-10 00:10:00,19.5,14.9,30.30,NNE,19,2.0,2.0,82,0.00,,,0.00,Wunderground v.1.15,2013-04-10 06:10:00,
2013-04-10 00:14:00,19.5,14.9,30.30,NNE,19,2.0,2.0,82,0.00,,,0.00,Wunderground v.1.15,2013-04-10 06:14:00,
2013-04-10 00:16:00,19.5,14.9,30.31,NNE,19,2.0,2.0,82,0.00,,,0.00,Wunderground v.1.15,2013-04-10 06:16:00,
2013-04-10 00:18:00,19.5,14.9,30.31,NNE,20,2.0,2.0,82,0.00,,,0.00,Wunderground v.1.15,2013-04-10 06:18:00,
2013-04-10 00:20:00,19.4,14.8,30.31,NNE,13,2.0,2.0,82,0.00,,,0.00,Wunderground v.1.15,2013-04-10 06:20:00,
2013-04-10 00:22:00,19.4,14.8,30.31,NNE,17,2.0,2.0,82,0.00,,,0.00,Wunderground v.1.15,2013-04-10 06:22:00,
2013-04-10 00:28:00,19.4,15.1,30.31,North,5,2.0,5.0,83,0.00,,,0.00,Wunderground v.1.15,2013-04-10 06:28:00,
2013-04-10 00:30:00,19.4,15.1,30.31,North,5,2.0,3.0,83,0.00,,,0.00,Wunderground v.1.15,2013-04-10 06:30:00,
2013-04-10 00:32:00,19.4,15.1,30.33,North,5,2.0,3.0,83,0.00,,,0.00,Wunderground v.1.15,2013-04-10 06:32:00,
2013-04-10 00:34:00,19.4,15.1,30.33,North,5,2.0,3.0,83,0.00,,,0.00,Wunderground v.1.15,2013-04-10 06:34:00,
2013-04-10 00:38:00,19.4,15.1,30.33,North,5,1.0,3.0,83,0.00,,,0.00,Wunderground v.1.15,2013-04-10 06:38:00,
2013-04-10 00:42:00,19.4,15.1,30.33,NNE,31,1.0,2.0,83,0.00,,,0.00,Wunderground v.1.15,2013-04-10 06:42:00,
2013-04-10 00:44:00,19.4,15.1,30.33,NNE,32,2.0,2.0,83,0.00,,,0.00,Wunderground v.1.15,2013-04-10 06:44:00,
2013-04-10 00:48:00,19.4,15.1,30.33,North,11,2.0,3.0,83,0.00,,,0.00,Wunderground v.1.15,2013-04-10 06:48:00,
2013-04-10 00:52:00,19.2,14.9,30.33,NNE,13,2.0,3.0,83,0.00,,,0.00,Wunderground v.1.15,2013-04-10 06:52:00,
2013-04-10 00:58:00,19.2,14.9,30.33,NNE,14,2.0,3.0,83,0.00,,,0.00,Wunderground v.1.15,2013-04-10 06:58:00,
2013-04-10 01:02:00,19.2,14.9,30.34,NNE,14,1.0,1.0,83,0.00,,,0.00,Wunderground v.1.15,2013-04-10 07:02:00,
2013-04-10 01:04:00,19.2,14.9,30.34,NNE,17,1.0,1.0,83,0.00,,,0.00,Wunderground v.1.15,2013-04-10 07:04:00,
2013-04-10 01:06:00,19.2,15.2,30.34,NNE,17,0.0,1.0,84,0.00,,,0.00,Wunderground v.1.15,2013-04-10 07:06:00,
2013-04-10 01:08:00,19.2,15.2,30.34,NNE,17,0.0,1.0,84,0.00,,,0.00,Wunderground v.1.15,2013-04-10 07:08:00,
2013-04-10 01:10:00,19.2,15.2,30.34,NNE,18,0.0,0.0,84,0.00,,,0.00,Wunderground v.1.15,2013-04-10 07:10:00,
2013-04-10 01:16:00,19.1,14.8,30.34,NNE,18,1.0,1.0,83,0.00,,,0.00,Wunderground v.1.15,2013-04-10 07:16:00,
2013-04-10 01:20:00,19.1,15.1,30.34,NNE,18,1.0,1.0,84,0.00,,,0.00,Wunderground v.1.15,2013-04-10 07:20:00,
2013-04-10 01:22:00,19.1,15.1,30.34,NNE,18,1.0,1.0,84,0.00,,,0.00,Wunderground v.1.15,2013-04-10 07:22:00,
2013-04-10 01:24:00,19.1,14.8,30.34,NNE,18,1.0,1.0,83,0.00,,,0.00,Wunderground v.1.15,2013-04-10 07:24:00,
2013-04-10 01:30:00,19.1,15.1,30.34,NNE,17,1.0,1.0,84,0.00,,,0.00,Wunderground v.1.15,2013-04-10 07:30:00,
2013-04-10 01:32:00,19.1,15.1,30.34,NNE,17,1.0,1.0,84,0.00,,,0.00,Wunderground v.1.15,2013-04-10 07:32:00,
2013-04-10 01:34:00,19.2,15.2,30.34,NNE,17,0.0,1.0,84,0.00,,,0.00,Wunderground v.1.15,2013-04-10 07:34:00,
2013-04-10 01:38:00,19.2,15.2,30.34,NNE,22,1.0,3.0,84,0.00,,,0.00,Wunderground v.1.15,2013-04-10 07:38:00,
2013-04-10 01:40:00,19.1,14.8,30.34,NNE,22,1.0,2.0,83,0.00,,,0.00,Wunderground v.1.15,2013-04-10 07:40:00,
2013-04-10 01:44:00,19.1,15.1,30.34,NNE,21,1.0,2.0,84,0.00,,,0.00,Wunderground v.1.15,2013-04-10 07:44:00,
2013-04-10 01:46:00,19.1,15.1,30.34,NNE,21,1.0,2.0,84,0.00,,,0.00,Wunderground v.1.15,2013-04-10 07:46:00,
2013-04-10 01:50:00,19.1,14.8,30.34,NNE,21,0.0,0.0,83,0.00,,,0.00,Wunderground v.1.15,2013-04-10 07:50:00,
2013-04-10 01:52:00,19.1,14.8,30.34,NNE,21,0.0,0.0,83,0.00,,,0.00,Wunderground v.1.15,2013-04-10 07:52:00,
2013-04-10 01:58:00,18.9,14.6,30.34,NNE,21,0.0,2.0,83,0.00,,,0.00,Wunderground v.1.15,2013-04-10 07:58:00,
2013-04-10 02:02:00,18.9,14.6,30.34,NNE,21,0.0,0.0,83,0.00,,,0.00,Wunderground v.1.15,2013-04-10 08:02:00,
2013-04-10 02:04:00,18.9,14.6,30.34,NNE,21,0.0,0.0,83,0.00,,,0.00,Wunderground v.1.15,2013-04-10 08:04:00,
2013-04-10 02:08:00,18.9,14.6,30.34,NNE,22,0.0,0.0,83,0.00,,,0.00,Wunderground v.1.15,2013-04-10 08:08:00,
2013-04-10 02:10:00,18.9,14.6,30.34,NNE,22,0.0,0.0,83,0.00,,,0.00,Wunderground v.1.15,2013-04-10 08:10:00,
2013-04-10 02:12:00,18.9,14.6,30.34,NNE,22,0.0,0.0,83,0.00,,,0.00,Wunderground v.1.15,2013-04-10 08:12:00,
2013-04-10 02:14:00,18.9,14.6,30.34,NNE,22,0.0,0.0,83,0.00,,,0.00,Wunderground v.1.15,2013-04-10 08:14:00,
2013-04-10 02:18:00,18.9,14.6,30.35,NNE,17,1.0,3.0,83,0.00,,,0.00,Wunderground v.1.15,2013-04-10 08:18:00,
2013-04-10 02:20:00,18.8,14.5,30.35,NNE,17,1.0,1.0,83,0.00,,,0.00,Wunderground v.1.15,2013-04-10 08:20:00,
2013-04-10 02:22:00,18.8,14.5,30.35,NNE,17,1.0,1.0,83,0.00,,,0.00,Wunderground v.1.15,2013-04-10 08:22:00,
2013-04-10 02:24:00,18.8,14.5,30.35,NNE,17,1.0,1.0,83,0.00,,,0.00,Wunderground v.1.15,2013-04-10 08:24:00,
2013-04-10 02:28:00,18.8,14.5,30.35,NNE,17,1.0,2.0,83,0.00,,,0.00,Wunderground v.1.15,2013-04-10 08:28:00,
2013-04-10 02:30:00,18.8,14.5,30.35,NNE,17,1.0,2.0,83,0.00,,,0.00,Wunderground v.1.15,2013-04-10 08:30:00,
2013-04-10 02:32:00,18.8,14.5,30.36,NNE,17,1.0,3.0,83,0.00,,,0.00,Wunderground v.1.15,2013-04-10 08:32:00,
2013-04-10 02:36:00,18.8,14.5,30.36,North,5,2.0,3.0,83,0.00,,,0.00,Wunderground v.1.15,2013-04-10 08:36:00,
2013-04-10 02:38:00,18.8,14.5,30.36,NNW,342,2.0,3.0,83,0.00,,,0.00,Wunderground v.1.15,2013-04-10 08:38:00,
2013-04-10 02:42:00,18.8,14.5,30.36,North,5,2.0,2.0,83,0.00,,,0.00,Wunderground v.1.15,2013-04-10 08:42:00,
2013-04-10 02:44:00,18.8,14.5,30.36,North,5,2.0,2.0,83,0.00,,,0.00,Wunderground v.1.15,2013-04-10 08:44:00,
2013-04-10 02:48:00,18.6,14.3,30.36,North,5,1.0,7.0,83,0.00,,,0.00,Wunderground v.1.15,2013-04-10 08:48:00,
2013-04-10 02:50:00,18.6,14.3,30.36,North,5,2.0,2.0,83,0.00,,,0.00,Wunderground v.1.15,2013-04-10 08:50:00,
2013-04-10 02:52:00,18.6,14.0,30.36,NE,38,2.0,2.0,82,0.00,,,0.00,Wunderground v.1.15,2013-04-10 08:52:00,
2013-04-10 02:56:00,18.4,13.8,30.36,NE,38,1.0,2.0,82,0.00,,,0.00,Wunderground v.1.15,2013-04-10 08:56:00,
2013-04-10 02:58:00,18.4,13.8,30.36,NE,38,1.0,2.0,82,0.00,,,0.00,Wunderground v.1.15,2013-04-10 08:58:00,
2013-04-10 03:02:00,18.3,13.4,30.37,NE,38,0.0,0.0,81,0.00,,,0.00,Wunderground v.1.15,2013-04-10 09:02:00,
2013-04-10 03:04:00,18.3,13.4,30.37,NE,38,0.0,0.0,81,0.00,,,0.00,Wunderground v.1.15,2013-04-10 09:04:00,
2013-04-10 03:08:00,18.1,13.0,30.37,NE,38,0.0,0.0,80,0.00,,,0.00,Wunderground v.1.15,2013-04-10 09:08:00,
2013-04-10 03:10:00,18.1,13.0,30.37,NE,38,0.0,0.0,80,0.00,,,0.00,Wunderground v.1.15,2013-04-10 09:10:00,
2013-04-10 03:14:00,18.1,13.0,30.37,NE,38,0.0,0.0,80,0.00,,,0.00,Wunderground v.1.15,2013-04-10 09:14:00,
2013-04-10 03:16:00,18.1,12.7,30.38,NE,38,0.0,0.0,79,0.00,,,0.00,Wunderground v.1.15,2013-04-10 09:16:00,
2013-04-10 03:20:00,18.1,12.7,30.38,NE,38,0.0,0.0,79,0.00,,,0.00,Wunderground v.1.15,2013-04-10 09:20:00,
2013-04-10 03:24:00,18.1,12.4,30.38,NE,37,0.0,1.0,78,0.00,,,0.00,Wunderground v.1.15,2013-04-10 09:24:00,
2013-04-10 03:28:00,18.0,12.0,30.38,NE,37,1.0,1.0,77,0.00,,,0.00,Wunderground v.1.15,2013-04-10 09:28:00,
2013-04-10 03:30:00,18.0,11.7,30.38,NNE,32,1.0,1.0,76,0.00,,,0.00,Wunderground v.1.15,2013-04-10 09:30:00,
2013-04-10 03:32:00,18.0,11.7,30.39,NNE,32,1.0,3.0,76,0.00,,,0.00,Wunderground v.1.15,2013-04-10 09:32:00,
2013-04-10 03:34:00,18.0,11.4,30.39,NNE,33,2.0,3.0,75,0.00,,,0.00,Wunderground v.1.15,2013-04-10 09:34:00,
2013-04-10 03:38:00,18.0,11.4,30.39,NNE,32,1.0,3.0,75,0.00,,,0.00,Wunderground v.1.15,2013-04-10 09:38:00,
2013-04-10 03:42:00,18.0,11.4,30.39,NNE,32,1.0,1.0,75,0.00,,,0.00,Wunderground v.1.15,2013-04-10 09:42:00,
2013-04-10 03:44:00,18.0,11.4,30.39,NNE,32,0.0,1.0,75,0.00,,,0.00,Wunderground v.1.15,2013-04-10 09:44:00,
2013-04-10 03:46:00,18.0,11.4,30.39,NNE,32,0.0,1.0,75,0.00,,,0.00,Wunderground v.1.15,2013-04-10 09:46:00,
2013-04-10 03:50:00,18.0,11.4,30.39,NNE,32,0.0,0.0,75,0.00,,,0.00,Wunderground v.1.15,2013-04-10 09:50:00,
2013-04-10 03:52:00,18.0,11.4,30.39,NNE,32,0.0,0.0,75,0.00,,,0.00,Wunderground v.1.15,2013-04-10 09:52:00,
2013-04-10 03:56:00,18.0,11.4,30.39,NNE,32,0.0,0.0,75,0.00,,,0.00,Wunderground v.1.15,2013-04-10 09:56:00,
2013-04-10 03:58:00,18.0,11.4,30.39,NNE,32,0.0,0.0,75,0.00,,,0.00,Wunderground v.1.15,2013-04-10 09:58:00,
2013-04-10 04:02:00,18.0,11.4,30.40,NNE,32,0.0,0.0,75,0.00,,,0.00,Wunderground v.1.15,2013-04-10 10:02:00,
2013-04-10 04:04:00,18.0,11.7,30.40,NNE,32,0.0,0.0,76,0.00,,,0.00,Wunderground v.1.15,2013-04-10 10:04:00,
2013-04-10 04:08:00,17.8,11.5,30.40,NNE,32,0.0,0.0,76,0.00,,,0.00,Wunderground v.1.15,2013-04-10 10:08:00,
2013-04-10 04:10:00,17.8,11.5,30.40,NNE,32,0.0,0.0,76,0.00,,,0.00,Wunderground v.1.15,2013-04-10 10:10:00,
2013-04-10 04:14:00,17.8,11.5,30.40,NNE,32,0.0,0.0,76,0.00,,,0.00,Wunderground v.1.15,2013-04-10 10:14:00,
2013-04-10 04:20:00,17.8,11.5,30.40,NNE,32,0.0,0.0,76,0.00,,,0.00,Wunderground v.1.15,2013-04-10 10:20:00,
2013-04-10 04:24:00,17.8,11.5,30.40,NNE,32,0.0,0.0,76,0.00,,,0.00,Wunderground v.1.15,2013-04-10 10:24:00,
2013-04-10 04:28:00,17.8,11.5,30.40,NNE,32,0.0,0.0,76,0.00,,,0.00,Wunderground v.1.15,2013-04-10 10:28:00,
2013-04-10 04:30:00,17.8,11.5,30.40,NNE,32,0.0,0.0,76,0.00,,,0.00,Wunderground v.1.15,2013-04-10 10:30:00,
2013-04-10 04:32:00,17.8,11.5,30.40,NNE,32,0.0,0.0,76,0.00,,,0.00,Wunderground v.1.15,2013-04-10 10:32:00,
2013-04-10 04:34:00,17.8,11.5,30.40,NNE,32,0.0,0.0,76,0.00,,,0.00,Wunderground v.1.15,2013-04-10 10:34:00,
2013-04-10 04:38:00,17.8,11.5,30.40,NNE,32,0.0,0.0,76,0.00,,,0.00,Wunderground v.1.15,2013-04-10 10:38:00,
2013-04-10 04:40:00,17.8,11.5,30.40,NE,35,0.0,0.0,76,0.00,,,0.00,Wunderground v.1.15,2013-04-10 10:40:00,
2013-04-10 04:44:00,17.7,11.4,30.40,NE,35,0.0,0.0,76,0.00,,,0.00,Wunderground v.1.15,2013-04-10 10:44:00,
2013-04-10 04:46:00,17.7,11.4,30.40,NE,35,0.0,0.0,76,0.00,,,0.00,Wunderground v.1.15,2013-04-10 10:46:00,
2013-04-10 04:48:00,17.7,11.4,30.40,NE,35,0.0,0.0,76,0.00,,,0.00,Wunderground v.1.15,2013-04-10 10:48:00,
2013-04-10 04:50:00,17.7,11.4,30.40,NE,35,0.0,0.0,76,0.00,,,0.00,Wunderground v.1.15,2013-04-10 10:50:00,
2013-04-10 04:54:00,17.7,11.4,30.40,NE,35,0.0,0.0,76,0.00,,,0.00,Wunderground v.1.15,2013-04-10 10:54:00,
2013-04-10 05:00:00,17.5,11.2,30.40,NE,35,0.0,0.0,76,0.00,,,0.00,Wunderground v.1.15,2013-04-10 11:00:00,
2013-04-10 05:02:00,17.5,11.2,30.40,NE,35,0.0,0.0,76,0.00,,,0.00,Wunderground v.1.15,2013-04-10 11:02:00,
2013-04-10 05:04:00,17.5,11.5,30.40,NE,35,0.0,0.0,77,0.00,,,0.00,Wunderground v.1.15,2013-04-10 11:04:00,
2013-04-10 05:08:00,17.5,11.5,30.40,NE,34,0.0,2.0,77,0.00,,,0.00,Wunderground v.1.15,2013-04-10 11:08:00,
2013-04-10 05:12:00,17.5,11.5,30.40,NE,35,0.0,1.0,77,0.00,,,0.00,Wunderground v.1.15,2013-04-10 11:12:00,
2013-04-10 05:14:00,17.3,11.3,30.40,ENE,59,0.0,1.0,77,0.00,,,0.00,Wunderground v.1.15,2013-04-10 11:14:00,
2013-04-10 05:18:00,17.5,11.5,30.41,ENE,59,0.0,1.0,77,0.00,,,0.00,Wunderground v.1.15,2013-04-10 11:18:00,
2013-04-10 05:22:00,17.3,11.3,30.41,ENE,59,0.0,0.0,77,0.00,,,0.00,Wunderground v.1.15,2013-04-10 11:22:00,
2013-04-10 05:24:00,17.3,11.3,30.41,ENE,59,0.0,0.0,77,0.00,,,0.00,Wunderground v.1.15,2013-04-10 11:24:00,
2013-04-10 05:28:00,17.3,11.3,30.41,ENE,59,0.0,0.0,77,0.00,,,0.00,Wunderground v.1.15,2013-04-10 11:28:00,
2013-04-10 05:30:00,17.3,11.0,30.42,ENE,59,0.0,0.0,76,0.00,,,0.00,Wunderground v.1.15,2013-04-10 11:30:00,
2013-04-10 05:32:00,17.3,11.0,30.42,ENE,59,0.0,0.0,76,0.00,,,0.00,Wunderground v.1.15,2013-04-10 11:32:00,
2013-04-10 05:34:00,17.3,11.3,30.42,ENE,59,0.0,0.0,77,0.00,,,0.00,Wunderground v.1.15,2013-04-10 11:34:00,
2013-04-10 05:40:00,17.3,11.0,30.42,ENE,59,0.0,0.0,76,0.00,,,0.00,Wunderground v.1.15,2013-04-10 11:40:00,
2013-04-10 05:44:00,17.3,11.0,30.42,ENE,59,0.0,0.0,76,0.00,,,0.00,Wunderground v.1.15,2013-04-10 11:44:00,
2013-04-10 05:50:00,17.3,11.0,30.42,ENE,59,0.0,0.0,76,0.00,,,0.00,Wunderground v.1.15,2013-04-10 11:50:00,
2013-04-10 05:52:00,17.3,11.0,30.42,ENE,59,0.0,0.0,76,0.00,,,0.00,Wunderground v.1.15,2013-04-10 11:52:00,
2013-04-10 05:58:00,17.3,11.0,30.42,ENE,59,0.0,0.0,76,0.00,,,0.00,Wunderground v.1.15,2013-04-10 11:58:00,
2013-04-10 06:00:00,17.3,11.0,30.42,ENE,59,0.0,0.0,76,0.00,,,0.00,Wunderground v.1.15,2013-04-10 12:00:00,
2013-04-10 06:02:00,17.3,11.3,30.42,ENE,59,0.0,0.0,77,0.00,,,0.00,Wunderground v.1.15,2013-04-10 12:02:00,
2013-04-10 06:04:00,17.3,11.3,30.42,ENE,59,0.0,0.0,77,0.00,,,0.00,Wunderground v.1.15,2013-04-10 12:04:00,
2013-04-10 06:06:00,17.3,11.3,30.42,ENE,59,0.0,0.0,77,0.00,,,0.00,Wunderground v.1.15,2013-04-10 12:06:00,
2013-04-10 06:10:00,17.3,11.3,30.42,ENE,59,0.0,0.0,77,0.00,,,0.00,Wunderground v.1.15,2013-04-10 12:10:00,
2013-04-10 06:14:00,17.3,11.3,30.42,ENE,59,0.0,0.0,77,0.00,,,0.00,Wunderground v.1.15,2013-04-10 12:14:00,
2013-04-10 06:20:00,17.3,11.3,30.42,ENE,59,0.0,0.0,77,0.00,,,0.00,Wunderground v.1.15,2013-04-10 12:20:00,
2013-04-10 06:22:00,17.2,11.2,30.42,ENE,59,0.0,0.0,77,0.00,,,0.00,Wunderground v.1.15,2013-04-10 12:22:00,
2013-04-10 06:24:00,17.2,11.2,30.42,ENE,59,0.0,0.0,77,0.00,,,0.00,Wunderground v.1.15,2013-04-10 12:24:00,
2013-04-10 06:28:00,17.2,11.2,30.42,ENE,59,0.0,0.0,77,0.00,,,0.00,Wunderground v.1.15,2013-04-10 12:28:00,
2013-04-10 06:32:00,17.2,11.2,30.42,ENE,59,0.0,0.0,77,0.00,,,0.00,Wunderground v.1.15,2013-04-10 12:32:00,
2013-04-10 06:34:00,17.2,11.2,30.42,ENE,59,0.0,0.0,77,0.00,,,0.00,Wunderground v.1.15,2013-04-10 12:34:00,
2013-04-10 06:38:00,17.2,11.2,30.42,ENE,59,0.0,0.0,77,0.00,,,0.00,Wunderground v.1.15,2013-04-10 12:38:00,
2013-04-10 06:40:00,17.0,11.0,30.42,ENE,59,0.0,0.0,77,0.00,,,0.00,Wunderground v.1.15,2013-04-10 12:40:00,
2013-04-10 06:44:00,17.0,11.0,30.42,ENE,59,0.0,0.0,77,0.00,,,0.00,Wunderground v.1.15,2013-04-10 12:44:00,
2013-04-10 06:48:00,17.0,11.0,30.42,ENE,59,0.0,0.0,77,0.00,,,0.00,Wunderground v.1.15,2013-04-10 12:48:00,
2013-04-10 06:52:00,16.9,10.9,30.42,ENE,59,0.0,0.0,77,0.00,,,0.00,Wunderground v.1.15,2013-04-10 12:52:00,
2013-04-10 06:54:00,16.9,10.9,30.42,ENE,59,0.0,0.0,77,0.00,,,0.00,Wunderground v.1.15,2013-04-10 12:54:00,
2013-04-10 07:00:00,16.9,10.9,30.42,ENE,59,0.0,0.0,77,0.00,,,0.00,Wunderground v.1.15,2013-04-10 13:00:00,
2013-04-10 07:02:00,16.9,10.9,30.43,ENE,59,0.0,0.0,77,0.00,,,0.00,Wunderground v.1.15,2013-04-10 13:02:00,
2013-04-10 07:04:00,16.9,10.9,30.43,ENE,59,0.0,0.0,77,0.00,,,0.00,Wunderground v.1.15,2013-04-10 13:04:00,
2013-04-10 07:08:00,17.0,11.0,30.43,NE,56,0.0,0.0,77,0.00,,,0.00,Wunderground v.1.15,2013-04-10 13:08:00,
2013-04-10 07:12:00,17.0,11.0,30.43,NE,56,0.0,0.0,77,0.00,,,0.00,Wunderground v.1.15,2013-04-10 13:12:00,
2013-04-10 07:14:00,17.0,11.0,30.43,NE,56,0.0,0.0,77,0.00,,,0.00,Wunderground v.1.15,2013-04-10 13:14:00,
2013-04-10 07:16:00,17.0,11.0,30.45,NE,56,0.0,0.0,77,0.00,,,0.00,Wunderground v.1.15,2013-04-10 13:16:00,
2013-04-10 07:18:00,17.0,11.0,30.45,NE,56,0.0,0.0,77,0.00,,,0.00,Wunderground v.1.15,2013-04-10 13:18:00,
2013-04-10 07:20:00,17.2,10.9,30.45,NE,56,0.0,0.0,76,0.00,,,0.00,Wunderground v.1.15,2013-04-10 13:20:00,
2013-04-10 07:22:00,17.2,10.9,30.45,NE,56,0.0,0.0,76,0.00,,,0.00,Wunderground v.1.15,2013-04-10 13:22:00,
2013-04-10 07:24:00,17.2,11.2,30.45,ENE,57,0.0,0.0,77,0.00,,,0.00,Wunderground v.1.15,2013-04-10 13:24:00,
2013-04-10 07:28:00,17.2,10.9,30.45,NE,56,0.0,2.0,76,0.00,,,0.00,Wunderground v.1.15,2013-04-10 13:28:00,
2013-04-10 07:30:00,17.3,11.0,30.45,NE,56,0.0,0.0,76,0.00,,,0.00,Wunderground v.1.15,2013-04-10 13:30:00,
2013-04-10 07:38:00,17.2,10.6,30.45,ENE,57,0.0,2.0,75,0.00,,,0.00,Wunderground v.1.15,2013-04-10 13:38:00,
2013-04-10 07:40:00,17.2,10.6,30.45,ENE,57,0.0,0.0,75,0.00,,,0.00,Wunderground v.1.15,2013-04-10 13:40:00,
2013-04-10 07:42:00,17.2,10.6,30.45,ENE,57,0.0,0.0,75,0.00,,,0.00,Wunderground v.1.15,2013-04-10 13:42:00,
2013-04-10 07:44:00,17.2,10.6,30.45,ENE,57,0.0,0.0,75,0.00,,,0.00,Wunderground v.1.15,2013-04-10 13:44:00,
2013-04-10 07:48:00,17.2,10.9,30.46,ENE,57,0.0,0.0,76,0.00,,,0.00,Wunderground v.1.15,2013-04-10 13:48:00,
2013-04-10 07:50:00,17.3,11.0,30.46,ENE,57,0.0,0.0,76,0.00,,,0.00,Wunderground v.1.15,2013-04-10 13:50:00,
2013-04-10 07:54:00,17.5,10.9,30.46,ENE,57,0.0,0.0,75,0.00,,,0.00,Wunderground v.1.15,2013-04-10 13:54:00,
2013-04-10 07:56:00,17.7,11.1,30.46,ENE,57,0.0,0.0,75,0.00,,,0.00,Wunderground v.1.15,2013-04-10 13:56:00,
2013-04-10 07:58:00,17.7,10.8,30.46,ENE,57,0.0,2.0,74,0.00,,,0.00,Wunderground v.1.15,2013-04-10 13:58:00,
2013-04-10 08:04:00,17.8,10.9,30.46,ENE,57,0.0,0.0,74,0.00,,,0.00,Wunderground v.1.15,2013-04-10 14:04:00,
2013-04-10 08:06:00,17.8,10.9,30.46,ENE,57,0.0,0.0,74,0.00,,,0.00,Wunderground v.1.15,2013-04-10 14:06:00,
2013-04-10 08:08:00,18.0,11.1,30.46,ENE,57,0.0,1.0,74,0.00,,,0.00,Wunderground v.1.15,2013-04-10 14:08:00,
2013-04-10 08:12:00,18.1,10.9,30.46,NE,55,0.0,1.0,73,0.00,,,0.00,Wunderground v.1.15,2013-04-10 14:12:00,
2013-04-10 08:14:00,18.1,10.9,30.46,NE,55,0.0,1.0,73,0.00,,,0.00,Wunderground v.1.15,2013-04-10 14:14:00,
2013-04-10 08:18:00,18.1,10.9,30.48,NE,55,1.0,1.0,73,0.00,,,0.00,Wunderground v.1.15,2013-04-10 14:18:00,
2013-04-10 08:20:00,18.1,10.6,30.48,NE,55,0.0,0.0,72,0.00,,,0.00,Wunderground v.1.15,2013-04-10 14:20:00,
2013-04-10 08:22:00,18.1,10.9,30.48,NE,55,0.0,1.0,73,0.00,,,0.00,Wunderground v.1.15,2013-04-10 14:22:00,
2013-04-10 08:24:00,18.3,10.8,30.48,NE,55,0.0,1.0,72,0.00,,,0.00,Wunderground v.1.15,2013-04-10 14:24:00,
2013-04-10 08:26:00,18.4,10.9,30.48,NE,55,0.0,1.0,72,0.00,,,0.00,Wunderground v.1.15,2013-04-10 14:26:00,
2013-04-10 08:28:00,18.6,11.1,30.48,NE,55,0.0,1.0,72,0.00,,,0.00,Wunderground v.1.15,2013-04-10 14:28:00,
2013-04-10 08:32:00,18.6,11.1,30.48,NNE,13,1.0,2.0,72,0.00,,,0.00,Wunderground v.1.15,2013-04-10 14:32:00,
2013-04-10 08:38:00,18.6,10.8,30.48,NW,323,2.0,5.0,71,0.00,,,0.00,Wunderground v.1.15,2013-04-10 14:38:00,
2013-04-10 08:44:00,18.8,11.6,30.48,North,351,2.0,3.0,73,0.00,,,0.00,Wunderground v.1.15,2013-04-10 14:44:00,
2013-04-10 08:48:00,19.1,11.9,30.48,North,350,1.0,3.0,73,0.00,,,0.00,Wunderground v.1.15,2013-04-10 14:48:00,
2013-04-10 08:50:00,19.1,12.2,30.48,NNW,347,1.0,3.0,74,0.00,,,0.00,Wunderground v.1.15,2013-04-10 14:50:00,
2013-04-10 08:52:00,19.2,12.0,30.48,NNW,344,1.0,3.0,73,0.00,,,0.00,Wunderground v.1.15,2013-04-10 14:52:00,
2013-04-10 08:58:00,19.5,12.9,30.48,NNW,344,1.0,3.0,75,0.00,,,0.00,Wunderground v.1.15,2013-04-10 14:58:00,
2013-04-10 09:00:00,19.7,13.1,30.48,NNW,344,1.0,1.0,75,0.00,,,0.00,Wunderground v.1.15,2013-04-10 15:00:00,
2013-04-10 09:02:00,19.9,13.3,30.46,NNW,344,1.0,1.0,75,0.00,,,0.00,Wunderground v.1.15,2013-04-10 15:02:00,
2013-04-10 09:08:00,20.3,13.3,30.46,NNW,344,1.0,2.0,74,0.00,,,0.00,Wunderground v.1.15,2013-04-10 15:08:00,
2013-04-10 09:10:00,20.3,13.3,30.46,NNW,344,1.0,1.0,74,0.00,,,0.00,Wunderground v.1.15,2013-04-10 15:10:00,
2013-04-10 09:12:00,20.5,13.5,30.46,NNE,33,1.0,5.0,74,0.00,,,0.00,Wunderground v.1.15,2013-04-10 15:12:00,
2013-04-10 09:18:00,20.3,12.7,30.48,NNW,345,2.0,5.0,72,0.00,,,0.00,Wunderground v.1.15,2013-04-10 15:18:00,
2013-04-10 09:20:00,20.5,12.6,30.48,NNW,347,2.0,2.0,71,0.00,,,0.00,Wunderground v.1.15,2013-04-10 15:20:00,
2013-04-10 09:22:00,20.6,12.7,30.48,NNW,347,2.0,2.0,71,0.00,,,0.00,Wunderground v.1.15,2013-04-10 15:22:00,
2013-04-10 09:24:00,20.8,12.9,30.48,North,32767,1.0,2.0,71,0.00,,,0.00,Wunderground v.1.15,2013-04-10 15:24:00,
2013-04-10 09:30:00,20.8,11.6,30.47,NE,46,1.0,2.0,67,0.00,,,0.00,Wunderground v.1.15,2013-04-10 15:30:00,
2013-04-10 09:32:00,20.8,11.9,30.47,NNE,28,2.0,2.0,68,0.00,,,0.00,Wunderground v.1.15,2013-04-10 15:32:00,
2013-04-10 09:38:00,21.0,11.8,30.47,ENE,61,1.0,2.0,67,0.00,,,0.00,Wunderground v.1.15,2013-04-10 15:38:00,
2013-04-10 09:40:00,21.0,11.4,30.47,ENE,71,1.0,3.0,66,0.00,,,0.00,Wunderground v.1.15,2013-04-10 15:40:00,
2013-04-10 09:42:00,21.0,11.8,30.47,ENE,65,1.0,3.0,67,0.00,,,0.00,Wunderground v.1.15,2013-04-10 15:42:00,
2013-04-10 09:44:00,21.1,11.5,30.47,NNE,33,1.0,3.0,66,0.00,,,0.01,Wunderground v.1.15,2013-04-10 15:44:00,
2013-04-10 09:48:00,21.6,12.0,30.47,North,350,1.0,3.0,66,0.00,,,0.01,Wunderground v.1.15,2013-04-10 15:48:00,
2013-04-10 09:54:00,21.8,12.9,30.47,East,96,1.0,2.0,68,0.06,,,0.02,Wunderground v.1.15,2013-04-10 15:54:00,
2013-04-10 09:58:00,21.4,11.8,30.47,ESE,113,2.0,2.0,66,0.06,,,0.02,Wunderground v.1.15,2013-04-10 15:58:00,
2013-04-10 10:00:00,21.4,12.1,30.47,ESE,114,1.0,1.0,67,0.08,,,0.03,Wunderground v.1.15,2013-04-10 16:00:00,
2013-04-10 10:04:00,21.8,11.8,30.47,ENE,66,1.0,3.0,65,0.08,,,0.03,Wunderground v.1.15,2013-04-10 16:04:00,
2013-04-10 10:06:00,21.8,12.5,30.47,ENE,66,1.0,3.0,67,0.08,,,0.03,Wunderground v.1.15,2013-04-10 16:06:00,
2013-04-10 10:10:00,21.9,11.9,30.47,ENE,59,1.0,1.0,65,0.06,,,0.04,Wunderground v.1.15,2013-04-10 16:10:00,
2013-04-10 10:12:00,21.8,12.2,30.47,ENE,78,1.0,1.0,66,0.06,,,0.04,Wunderground v.1.15,2013-04-10 16:12:00,
2013-04-10 10:14:00,22.1,12.1,30.47,SE,138,1.0,1.0,65,0.06,,,0.04,Wunderground v.1.15,2013-04-10 16:14:00,
2013-04-10 10:20:00,21.3,11.4,30.47,East,86,1.0,2.0,65,0.08,,,0.05,Wunderground v.1.15,2013-04-10 16:20:00,
2013-04-10 10:22:00,21.3,11.7,30.47,East,86,1.0,2.0,66,0.08,,,0.05,Wunderground v.1.15,2013-04-10 16:22:00,
2013-04-10 10:24:00,21.3,11.4,30.47,ESE,105,1.0,2.0,65,0.07,,,0.05,Wunderground v.1.15,2013-04-10 16:24:00,
2013-04-10 10:28:00,21.9,11.9,30.47,ESE,121,1.0,2.0,65,0.05,,,0.05,Wunderground v.1.15,2013-04-10 16:28:00,
2013-04-10 10:31:00,21.9,11.6,30.48,ESE,121,1.0,1.0,64,0.04,,,0.06,Wunderground v.1.15,2013-04-10 16:31:00,
2013-04-10 10:36:00,22.5,12.5,30.48,ESE,122,0.0,1.0,65,0.04,,,0.06,Wunderground v.1.15,2013-04-10 16:36:00,
2013-04-10 10:38:00,22.5,11.8,30.48,ESE,122,1.0,1.0,63,0.04,,,0.06,Wunderground v.1.15,2013-04-10 16:38:00,
2013-04-10 10:42:00,22.4,12.4,30.48,SSE,165,1.0,2.0,65,0.05,,,0.06,Wunderground v.1.15,2013-04-10 16:42:00,
2013-04-10 10:44:00,22.2,12.2,30.48,SSE,165,1.0,2.0,65,0.05,,,0.07,Wunderground v.1.15,2013-04-10 16:44:00,
2013-04-10 10:46:00,22.5,12.8,30.48,SSE,165,1.0,2.0,66,0.05,,,0.07,Wunderground v.1.15,2013-04-10 16:46:00,
2013-04-10 10:48:00,22.7,12.7,30.48,SSE,165,1.0,2.0,65,0.05,,,0.07,Wunderground v.1.15,2013-04-10 16:48:00,
2013-04-10 10:50:00,23.0,13.0,30.48,SSE,165,1.0,2.0,65,0.05,,,0.07,Wunderground v.1.15,2013-04-10 16:50:00,
2013-04-10 10:56:00,23.0,12.3,30.48,ESE,104,1.0,1.0,63,0.04,,,0.07,Wunderground v.1.15,2013-04-10 16:56:00,
2013-04-10 11:00:00,23.2,12.8,30.48,East,99,1.0,2.0,64,0.04,,,0.08,Wunderground v.1.15,2013-04-10 17:00:00,
2013-04-10 11:02:00,23.3,12.6,30.48,ESE,114,1.0,4.0,63,0.04,,,0.08,Wunderground v.1.15,2013-04-10 17:02:00,
2013-04-10 11:08:00,23.3,12.2,30.48,ESE,114,1.0,4.0,62,0.04,,,0.08,Wunderground v.1.15,2013-04-10 17:08:00,
2013-04-10 11:10:00,23.2,12.1,30.48,ESE,114,1.0,1.0,62,0.05,,,0.09,Wunderground v.1.15,2013-04-10 17:10:00,
2013-04-10 11:12:00,23.0,11.2,30.48,ESE,110,1.0,1.0,60,0.05,,,0.09,Wunderground v.1.15,2013-04-10 17:12:00,
2013-04-10 11:14:00,23.2,12.1,30.48,ESE,110,1.0,2.0,62,0.05,,,0.09,Wunderground v.1.15,2013-04-10 17:14:00,
2013-04-10 11:20:00,23.2,11.7,30.48,ENE,76,1.0,1.0,61,0.05,,,0.09,Wunderground v.1.15,2013-04-10 17:20:00,
2013-04-10 11:24:00,23.6,13.2,30.48,ENE,75,0.0,1.0,64,0.05,,,0.10,Wunderground v.1.15,2013-04-10 17:24:00,
2013-04-10 11:28:00,24.5,14.1,30.48,North,32767,0.0,1.0,64,0.05,,,0.10,Wunderground v.1.15,2013-04-10 17:28:00,
2013-04-10 11:30:00,24.8,14.3,30.46,East,80,0.0,0.0,64,0.05,,,0.10,Wunderground v.1.15,2013-04-10 17:30:00,
2013-04-10 11:34:00,24.7,13.5,30.46,ENE,61,0.0,1.0,62,0.05,,,0.10,Wunderground v.1.15,2013-04-10 17:34:00,
2013-04-10 11:38:00,24.5,13.0,30.46,NE,56,1.0,3.0,61,0.04,,,0.10,Wunderground v.1.15,2013-04-10 17:38:00,
2013-04-10 11:40:00,24.8,13.6,30.46,North,5,1.0,6.0,62,0.04,,,0.11,Wunderground v.1.15,2013-04-10 17:40:00,
2013-04-10 11:44:00,24.5,13.0,30.46,East,90,1.0,6.0,61,0.04,,,0.11,Wunderground v.1.15,2013-04-10 17:44:00,
2013-04-10 11:46:00,24.5,12.6,30.46,ENE,66,1.0,6.0,60,0.04,,,0.11,Wunderground v.1.15,2013-04-10 17:46:00,
2013-04-10 11:50:00,24.8,14.0,30.46,NNE,18,1.0,1.0,63,0.04,,,0.11,Wunderground v.1.15,2013-04-10 17:50:00,
2013-04-10 11:52:00,25.0,14.2,30.46,NNE,18,1.0,1.0,63,0.05,,,0.12,Wunderground v.1.15,2013-04-10 17:52:00,
2013-04-10 11:56:00,25.3,13.7,30.46,ESE,109,1.0,3.0,61,0.05,,,0.12,Wunderground v.1.15,2013-04-10 17:56:00,
2013-04-10 11:58:00,25.3,13.7,30.46,ESE,109,1.0,3.0,61,0.05,,,0.12,Wunderground v.1.15,2013-04-10 17:58:00,
2013-04-10 12:00:00,25.6,14.4,30.45,NNE,27,1.0,1.0,62,0.05,,,0.12,Wunderground v.1.15,2013-04-10 18:00:00,
2013-04-10 12:02:00,25.6,14.4,30.45,NNE,24,1.0,1.0,62,0.05,,,0.12,Wunderground v.1.15,2013-04-10 18:02:00,
2013-04-10 12:06:00,25.1,13.2,30.45,NE,49,1.0,2.0,60,0.05,,,0.13,Wunderground v.1.15,2013-04-10 18:06:00,
2013-04-10 12:08:00,25.1,13.2,30.45,NE,49,1.0,3.0,60,0.05,,,0.13,Wunderground v.1.15,2013-04-10 18:08:00,
2013-04-10 12:12:00,25.3,14.1,30.45,NNE,28,1.0,1.0,62,0.05,,,0.13,Wunderground v.1.15,2013-04-10 18:12:00,
2013-04-10 12:14:00,25.4,14.5,30.45,North,5,1.0,3.0,63,0.05,,,0.13,Wunderground v.1.15,2013-04-10 18:14:00,
2013-04-10 12:16:00,25.4,14.2,30.46,North,5,1.0,3.0,62,0.05,,,0.13,Wunderground v.1.15,2013-04-10 18:16:00,
2013-04-10 12:18:00,25.3,14.1,30.46,North,5,2.0,3.0,62,0.04,,,0.13,Wunderground v.1.15,2013-04-10 18:18:00,
2013-04-10 12:20:00,25.4,13.8,30.46,North,5,2.0,2.0,61,0.04,,,0.13,Wunderground v.1.15,2013-04-10 18:20:00,
2013-04-10 12:24:00,25.4,14.2,30.46,East,86,2.0,4.0,62,0.04,,,0.14,Wunderground v.1.15,2013-04-10 18:24:00,
2013-04-10 12:30:00,25.6,13.2,30.45,ENE,69,1.0,1.0,59,0.04,,,0.14,Wunderground v.1.15,2013-04-10 18:30:00,
2013-04-10 12:34:00,25.7,14.5,30.45,NNE,19,1.0,3.0,62,0.04,,,0.14,Wunderground v.1.15,2013-04-10 18:34:00,
2013-04-10 12:38:00,25.7,14.1,30.45,NE,38,1.0,3.0,61,0.00,,,0.14,Wunderground v.1.15,2013-04-10 18:38:00,
2013-04-10 12:40:00,26.0,14.8,30.45,NE,55,1.0,1.0,62,0.00,,,0.15,Wunderground v.1.15,2013-04-10 18:40:00,
2013-04-10 12:44:00,26.3,13.5,30.45,East,96,1.0,3.0,58,0.00,,,0.15,Wunderground v.1.15,2013-04-10 18:44:00,
2013-04-10 12:48:00,26.1,13.3,30.44,East,94,1.0,3.0,58,0.00,,,0.15,Wunderground v.1.15,2013-04-10 18:48:00,
2013-04-10 12:50:00,26.1,14.1,30.44,East,93,1.0,2.0,60,0.00,,,0.15,Wunderground v.1.15,2013-04-10 18:50:00,
2013-04-10 12:56:00,26.1,14.5,30.44,East,92,1.0,2.0,61,0.04,,,0.16,Wunderground v.1.15,2013-04-10 18:56:00,
2013-04-10 13:00:00,26.6,14.6,30.44,NE,37,1.0,5.0,60,0.04,,,0.16,Wunderground v.1.15,2013-04-10 19:00:00,
2013-04-10 13:04:00,26.3,13.5,30.42,East,90,1.0,5.0,58,0.04,,,0.16,Wunderground v.1.15,2013-04-10 19:04:00,
2013-04-10 13:10:00,26.7,13.9,30.42,ESE,115,1.0,1.0,58,0.04,,,0.16,Wunderground v.1.15,2013-04-10 19:10:00,
2013-04-10 13:12:00,27.0,15.3,30.42,NE,36,1.0,1.0,61,0.00,,,0.16,Wunderground v.1.15,2013-04-10 19:12:00,
2013-04-10 13:18:00,26.9,14.5,30.41,East,92,2.0,4.0,59,0.00,,,0.17,Wunderground v.1.15,2013-04-10 19:18:00,
2013-04-10 13:24:00,27.2,14.8,30.41,ENE,61,2.0,4.0,59,0.00,,,0.17,Wunderground v.1.15,2013-04-10 19:24:00,
2013-04-10 13:28:00,27.0,15.7,30.41,NNE,17,2.0,4.0,62,0.00,,,0.17,Wunderground v.1.15,2013-04-10 19:28:00,
2013-04-10 13:30:00,27.0,15.7,30.41,NNW,330,3.0,4.0,62,0.00,,,0.17,Wunderground v.1.15,2013-04-10 19:30:00,
2013-04-10 13:32:00,27.0,14.9,30.41,NNE,24,3.0,5.0,60,0.00,,,0.17,Wunderground v.1.15,2013-04-10 19:32:00,
2013-04-10 13:36:00,27.0,15.7,30.41,NNE,32,3.0,5.0,62,0.00,,,0.17,Wunderground v.1.15,2013-04-10 19:36:00,
2013-04-10 13:38:00,27.2,15.5,30.41,NNE,30,2.0,5.0,61,0.00,,,0.17,Wunderground v.1.15,2013-04-10 19:38:00,
2013-04-10 13:42:00,27.6,16.3,30.41,ENE,59,1.0,4.0,62,0.00,,,0.18,Wunderground v.1.15,2013-04-10 19:42:00,
2013-04-10 13:44:00,27.8,16.1,30.41,NNE,32,1.0,4.0,61,0.00,,,0.18,Wunderground v.1.15,2013-04-10 19:44:00,
2013-04-10 13:50:00,28.2,16.8,30.40,NE,42,2.0,2.0,62,0.00,,,0.18,Wunderground v.1.15,2013-04-10 19:50:00,
2013-04-10 13:52:00,28.1,15.2,30.40,ENE,68,2.0,5.0,58,0.00,,,0.18,Wunderground v.1.15,2013-04-10 19:52:00,
2013-04-10 13:58:00,27.9,16.2,30.40,NNE,20,2.0,5.0,61,0.00,,,0.18,Wunderground v.1.15,2013-04-10 19:58:00,
2013-04-10 14:02:00,28.1,15.6,30.39,NNE,26,2.0,3.0,59,0.00,,,0.18,Wunderground v.1.15,2013-04-10 20:02:00,
2013-04-10 14:06:00,28.2,16.1,30.39,SSE,159,2.0,5.0,60,0.00,,,0.18,Wunderground v.1.15,2013-04-10 20:06:00,
2013-04-10 14:10:00,28.8,16.6,30.39,NE,55,1.0,4.0,60,0.00,,,0.18,Wunderground v.1.15,2013-04-10 20:10:00,
2013-04-10 14:14:00,29.3,17.1,30.39,ENE,57,1.0,4.0,60,0.00,,,0.18,Wunderground v.1.15,2013-04-10 20:14:00,
2013-04-10 14:18:00,29.5,18.1,30.39,North,32767,1.0,4.0,62,0.00,,,0.18,Wunderground v.1.15,2013-04-10 20:18:00,
2013-04-10 14:20:00,29.7,17.9,30.39,North,355,2.0,6.0,61,0.00,,,0.18,Wunderground v.1.15,2013-04-10 20:20:00,
2013-04-10 14:26:00,29.4,17.2,30.39,NNE,30,3.0,6.0,60,0.00,,,0.19,Wunderground v.1.15,2013-04-10 20:26:00,
2013-04-10 14:30:00,29.4,15.2,30.39,ESE,105,2.0,2.0,55,0.00,,,0.19,Wunderground v.1.15,2013-04-10 20:30:00,
2013-04-10 14:32:00,29.5,15.7,30.39,NE,53,2.0,3.0,56,0.00,,,0.19,Wunderground v.1.15,2013-04-10 20:32:00,
2013-04-10 14:36:00,29.8,17.2,30.39,NE,39,1.0,3.0,59,0.00,,,0.19,Wunderground v.1.15,2013-04-10 20:36:00,
2013-04-10 14:38:00,29.8,16.4,30.39,NE,46,1.0,3.0,57,0.00,,,0.19,Wunderground v.1.15,2013-04-10 20:38:00,
2013-04-10 14:40:00,30.1,17.1,30.39,NNE,27,1.0,2.0,58,0.00,,,0.19,Wunderground v.1.15,2013-04-10 20:40:00,
2013-04-10 14:42:00,30.0,17.0,30.39,ENE,57,2.0,2.0,58,0.00,,,0.19,Wunderground v.1.15,2013-04-10 20:42:00,
2013-04-10 14:44:00,30.1,16.7,30.39,NE,50,1.0,2.0,57,0.00,,,0.19,Wunderground v.1.15,2013-04-10 20:44:00,
2013-04-10 14:48:00,30.0,16.6,30.36,NE,47,2.0,5.0,57,0.00,,,0.19,Wunderground v.1.15,2013-04-10 20:48:00,
2013-04-10 14:50:00,30.0,16.6,30.36,NE,43,2.0,2.0,57,0.00,,,0.19,Wunderground v.1.15,2013-04-10 20:50:00,
2013-04-10 14:52:00,30.1,15.9,30.36,ENE,59,2.0,2.0,55,0.00,,,0.19,Wunderground v.1.15,2013-04-10 20:52:00,
2013-04-10 14:54:00,30.1,17.1,30.36,ENE,60,2.0,2.0,58,0.00,,,0.19,Wunderground v.1.15,2013-04-10 20:54:00,
2013-04-10 15:00:00,30.7,17.7,30.37,ENE,67,0.0,0.0,58,0.00,,,0.19,Wunderground v.1.15,2013-04-10 21:00:00,
2013-04-10 15:02:00,31.0,18.7,30.37,ENE,63,0.0,2.0,60,0.00,,,0.19,Wunderground v.1.15,2013-04-10 21:02:00,
2013-04-10 15:06:00,31.3,17.4,30.37,NNE,28,1.0,4.0,56,0.00,,,0.19,Wunderground v.1.15,2013-04-10 21:06:00,
2013-04-10 15:10:00,31.0,15.8,30.37,NE,48,2.0,2.0,53,0.00,,,0.19,Wunderground v.1.15,2013-04-10 21:10:00,
2013-04-10 15:14:00,31.2,18.1,30.37,NNE,12,2.0,6.0,58,0.00,,,0.19,Wunderground v.1.15,2013-04-10 21:14:00,
2013-04-10 15:16:00,31.5,18.0,30.35,NNE,13,2.0,6.0,57,0.00,,,0.19,Wunderground v.1.15,2013-04-10 21:16:00,
2013-04-10 15:18:00,31.6,17.3,30.35,ENE,74,1.0,6.0,55,0.00,,,0.19,Wunderground v.1.15,2013-04-10 21:18:00,
2013-04-10 15:24:00,31.9,18.8,30.35,North,350,1.0,2.0,58,0.00,,,0.19,Wunderground v.1.15,2013-04-10 21:24:00,
2013-04-10 15:30:00,31.8,17.5,30.34,NE,45,1.0,2.0,55,0.00,,,0.19,Wunderground v.1.15,2013-04-10 21:30:00,
2013-04-10 15:34:00,32.2,19.9,30.34,NE,43,0.0,2.0,60,0.00,,,0.19,Wunderground v.1.15,2013-04-10 21:34:00,
2013-04-10 15:38:00,32.7,19.5,30.34,NE,56,0.0,2.0,58,0.00,,,0.19,Wunderground v.1.15,2013-04-10 21:38:00,
2013-04-10 15:42:00,33.2,20.0,30.34,NE,56,0.0,0.0,58,0.00,,,0.19,Wunderground v.1.15,2013-04-10 21:42:00,
2013-04-10 15:44:00,33.5,19.0,30.34,North,349,1.0,1.0,55,0.00,,,0.19,Wunderground v.1.15,2013-04-10 21:44:00,
2013-04-10 15:46:00,33.5,19.5,30.31,North,350,1.0,1.0,56,0.00,,,0.19,Wunderground v.1.15,2013-04-10 21:46:00,
2013-04-10 15:52:00,33.2,20.4,30.31,NE,34,1.0,3.0,59,0.00,,,0.19,Wunderground v.1.15,2013-04-10 21:52:00,
2013-04-10 15:56:00,32.9,19.7,30.31,North,5,1.0,4.0,58,0.00,,,0.19,Wunderground v.1.15,2013-04-10 21:56:00,
2013-04-10 16:00:00,32.9,18.9,30.31,NE,39,2.0,5.0,56,0.00,,,0.19,Wunderground v.1.15,2013-04-10 22:00:00,
2013-04-10 16:02:00,32.9,18.1,30.32,NE,51,2.0,5.0,54,0.00,,,0.19,Wunderground v.1.15,2013-04-10 22:02:00,
2013-04-10 16:06:00,32.9,17.6,30.32,NE,46,1.0,5.0,53,0.00,,,0.19,Wunderground v.1.15,2013-04-10 22:06:00,
2013-04-10 16:08:00,32.9,17.6,30.32,NE,44,1.0,5.0,53,0.00,,,0.19,Wunderground v.1.15,2013-04-10 22:08:00,
2013-04-10 16:12:00,33.1,18.7,30.32,North,10,1.0,1.0,55,0.00,,,0.19,Wunderground v.1.15,2013-04-10 22:12:00,
2013-04-10 16:14:00,33.2,18.3,30.32,NNW,333,1.0,3.0,54,0.00,,,0.19,Wunderground v.1.15,2013-04-10 22:14:00,
2013-04-10 16:18:00,33.7,19.2,30.32,NNW,330,1.0,3.0,55,0.00,,,0.19,Wunderground v.1.15,2013-04-10 22:18:00,
2013-04-10 16:20:00,33.8,18.9,30.32,NNW,330,1.0,2.0,54,0.00,,,0.19,Wunderground v.1.15,2013-04-10 22:20:00,
2013-04-10 16:22:00,33.8,18.0,30.32,South,184,1.0,4.0,52,0.00,,,0.19,Wunderground v.1.15,2013-04-10 22:22:00,
2013-04-10 16:24:00,33.8,18.0,30.32,South,184,1.0,4.0,52,0.00,,,0.19,Wunderground v.1.15,2013-04-10 22:24:00,
2013-04-10 16:30:00,34.7,19.7,30.32,South,184,1.0,1.0,54,0.00,,,0.19,Wunderground v.1.15,2013-04-10 22:30:00,
2013-04-10 16:36:00,35.5,18.7,30.30,South,184,1.0,3.0,50,0.00,,,0.19,Wunderground v.1.15,2013-04-10 22:36:00,
2013-04-10 16:38:00,35.5,19.6,30.30,South,184,0.0,3.0,52,0.00,,,0.19,Wunderground v.1.15,2013-04-10 22:38:00,
2013-04-10 16:40:00,35.5,19.1,30.30,South,184,1.0,5.0,51,0.00,,,0.19,Wunderground v.1.15,2013-04-10 22:40:00,
2013-04-10 16:48:00,35.0,19.1,30.29,ESE,123,1.0,5.0,52,0.00,,,0.19,Wunderground v.1.15,2013-04-10 22:48:00,
2013-04-10 16:52:00,35.3,20.3,30.29,SE,126,1.0,6.0,54,0.00,,,0.19,Wunderground v.1.15,2013-04-10 22:52:00,
2013-04-10 16:54:00,35.2,18.4,30.29,SE,126,1.0,6.0,50,0.00,,,0.19,Wunderground v.1.15,2013-04-10 22:54:00,
2013-04-10 16:56:00,34.9,18.1,30.29,ENE,76,1.0,6.0,50,0.00,,,0.19,Wunderground v.1.15,2013-04-10 22:56:00,
2013-04-10 16:58:00,34.9,19.5,30.29,SE,142,1.0,6.0,53,0.00,,,0.19,Wunderground v.1.15,2013-04-10 22:58:00,
2013-04-10 17:00:00,35.2,20.2,30.29,SE,136,1.0,1.0,54,0.00,,,0.19,Wunderground v.1.15,2013-04-10 23:00:00,
2013-04-10 17:02:00,35.5,19.6,30.29,SSE,148,1.0,2.0,52,0.00,,,0.19,Wunderground v.1.15,2013-04-10 23:02:00,
2013-04-10 17:04:00,35.5,19.6,30.29,South,178,1.0,2.0,52,0.00,,,0.19,Wunderground v.1.15,2013-04-10 23:04:00,
2013-04-10 17:06:00,35.8,20.8,30.29,South,178,0.0,2.0,54,0.00,,,0.19,Wunderground v.1.15,2013-04-10 23:06:00,
2013-04-10 17:08:00,35.8,19.9,30.29,South,178,1.0,2.0,52,0.00,,,0.19,Wunderground v.1.15,2013-04-10 23:08:00,
2013-04-10 17:10:00,35.9,19.0,30.29,South,178,1.0,1.0,50,0.00,,,0.19,Wunderground v.1.15,2013-04-10 23:10:00,
2013-04-10 17:12:00,35.9,19.0,30.29,South,178,1.0,1.0,50,0.00,,,0.19,Wunderground v.1.15,2013-04-10 23:12:00,
2013-04-10 17:14:00,35.8,19.0,30.29,South,169,1.0,1.0,50,0.00,,,0.19,Wunderground v.1.15,2013-04-10 23:14:00,
2013-04-10 17:18:00,35.9,19.0,30.29,South,170,1.0,1.0,50,0.00,,,0.19,Wunderground v.1.15,2013-04-10 23:18:00,
2013-04-10 17:20:00,35.8,19.4,30.29,South,170,1.0,1.0,51,0.00,,,0.19,Wunderground v.1.15,2013-04-10 23:20:00,
2013-04-10 17:24:00,35.6,18.8,30.29,SE,142,1.0,2.0,50,0.00,,,0.19,Wunderground v.1.15,2013-04-10 23:24:00,
2013-04-10 17:30:00,36.3,20.3,30.29,SSW,196,1.0,3.0,52,0.00,,,0.19,Wunderground v.1.15,2013-04-10 23:30:00,
2013-04-10 17:34:00,36.5,20.1,30.29,SE,126,2.0,3.0,51,0.00,,,0.19,Wunderground v.1.15,2013-04-10 23:34:00,
2013-04-10 17:40:00,36.3,19.4,30.29,SE,143,1.0,1.0,50,0.00,,,0.19,Wunderground v.1.15,2013-04-10 23:40:00,
2013-04-10 17:42:00,36.2,18.9,30.29,SE,143,1.0,1.0,49,0.00,,,0.19,Wunderground v.1.15,2013-04-10 23:42:00,
2013-04-10 17:48:00,35.9,19.5,30.29,SE,143,0.0,1.0,51,0.00,,,0.19,Wunderground v.1.15,2013-04-10 23:48:00,
2013-04-10 17:50:00,36.0,19.1,30.29,East,95,1.0,1.0,50,0.00,,,0.19,Wunderground v.1.15,2013-04-10 23:50:00,
2013-04-10 17:52:00,35.9,18.6,30.29,East,101,1.0,4.0,49,0.00,,,0.19,Wunderground v.1.15,2013-04-10 23:52:00,
2013-04-10 17:54:00,35.9,18.6,30.29,NNE,15,1.0,4.0,49,0.00,,,0.19,Wunderground v.1.15,2013-04-10 23:54:00,
2013-04-10 18:00:00,36.2,19.8,30.29,ESE,120,1.0,1.0,51,0.00,,,0.19,Wunderground v.1.15,2013-04-11 00:00:00,
2013-04-10 18:02:00,36.2,18.9,30.29,ESE,112,1.0,1.0,49,0.00,,,0.19,Wunderground v.1.15,2013-04-11 00:02:00,
2013-04-10 18:06:00,36.3,19.4,30.29,ESE,111,0.0,1.0,50,0.00,,,0.19,Wunderground v.1.15,2013-04-11 00:06:00,
2013-04-10 18:08:00,36.5,19.6,30.29,ESE,111,0.0,1.0,50,0.00,,,0.19,Wunderground v.1.15,2013-04-11 00:08:00,
2013-04-10 18:12:00,36.6,19.2,30.29,SSW,196,0.0,2.0,49,0.00,,,0.19,Wunderground v.1.15,2013-04-11 00:12:00,
2013-04-10 18:14:00,36.6,19.2,30.29,SSW,196,0.0,2.0,49,0.00,,,0.19,Wunderground v.1.15,2013-04-11 00:14:00,
2013-04-10 18:18:00,36.8,18.9,30.28,SSW,196,0.0,2.0,48,0.00,,,0.19,Wunderground v.1.15,2013-04-11 00:18:00,
2013-04-10 18:22:00,36.8,18.9,30.28,SSW,196,0.0,2.0,48,0.00,,,0.19,Wunderground v.1.15,2013-04-11 00:22:00,
2013-04-10 18:24:00,36.6,19.2,30.28,SSW,196,0.0,2.0,49,0.00,,,0.19,Wunderground v.1.15,2013-04-11 00:24:00,
2013-04-10 18:30:00,36.6,18.2,30.28,SSW,196,0.0,0.0,47,0.00,,,0.19,Wunderground v.1.15,2013-04-11 00:30:00,
2013-04-10 18:36:00,36.5,19.6,30.28,SSW,196,0.0,0.0,50,0.00,,,0.19,Wunderground v.1.15,2013-04-11 00:36:00,
2013-04-10 18:38:00,36.5,19.1,30.28,SSW,196,0.0,0.0,49,0.00,,,0.19,Wunderground v.1.15,2013-04-11 00:38:00,
2013-04-10 18:42:00,36.5,19.6,30.28,SSW,196,0.0,0.0,50,0.00,,,0.19,Wunderground v.1.15,2013-04-11 00:42:00,
2013-04-10 18:44:00,36.5,19.6,30.28,SSE,163,0.0,1.0,50,0.00,,,0.19,Wunderground v.1.15,2013-04-11 00:44:00,
2013-04-10 18:46:00,36.6,19.7,30.28,SSE,163,0.0,1.0,50,0.00,,,0.19,Wunderground v.1.15,2013-04-11 00:46:00,
2013-04-10 18:50:00,36.8,19.4,30.28,SSE,165,1.0,1.0,49,0.00,,,0.19,Wunderground v.1.15,2013-04-11 00:50:00,
2013-04-10 18:52:00,36.6,19.2,30.28,SSE,165,1.0,1.0,49,0.00,,,0.19,Wunderground v.1.15,2013-04-11 00:52:00,
2013-04-10 18:58:00,36.6,19.2,30.28,SE,129,1.0,1.0,49,0.00,,,0.19,Wunderground v.1.15,2013-04-11 00:58:00,
2013-04-10 19:00:00,36.6,19.2,30.28,ESE,117,1.0,1.0,49,0.00,,,0.19,Wunderground v.1.15,2013-04-11 01:00:00,
2013-04-10 19:02:00,36.5,19.1,30.28,ESE,117,1.0,1.0,49,0.00,,,0.19,Wunderground v.1.15,2013-04-11 01:02:00,
2013-04-10 19:08:00,36.3,18.9,30.28,ESE,117,0.0,1.0,49,0.00,,,0.19,Wunderground v.1.15,2013-04-11 01:08:00,
2013-04-10 19:10:00,36.3,18.9,30.28,ESE,117,0.0,3.0,49,0.00,,,0.19,Wunderground v.1.15,2013-04-11 01:10:00,
2013-04-10 19:14:00,36.3,19.9,30.28,SSE,153,0.0,3.0,51,0.00,,,0.19,Wunderground v.1.15,2013-04-11 01:14:00,
2013-04-10 19:18:00,36.2,19.3,30.28,SE,145,0.0,3.0,50,0.00,,,0.19,Wunderground v.1.15,2013-04-11 01:18:00,
2013-04-10 19:22:00,36.2,19.3,30.28,SE,145,0.0,0.0,50,0.00,,,0.19,Wunderground v.1.15,2013-04-11 01:22:00,
2013-04-10 19:24:00,36.2,19.8,30.28,SE,145,0.0,0.0,51,0.00,,,0.19,Wunderground v.1.15,2013-04-11 01:24:00,
2013-04-10 19:28:00,36.0,19.6,30.28,SE,145,0.0,0.0,51,0.00,,,0.19,Wunderground v.1.15,2013-04-11 01:28:00,
2013-04-10 19:30:00,35.9,19.5,30.28,SE,145,0.0,0.0,51,0.00,,,0.19,Wunderground v.1.15,2013-04-11 01:30:00,
2013-04-10 19:34:00,35.9,19.0,30.29,SE,146,0.0,2.0,50,0.00,,,0.19,Wunderground v.1.15,2013-04-11 01:34:00,
2013-04-10 19:38:00,35.8,19.4,30.29,SE,145,0.0,2.0,51,0.00,,,0.19,Wunderground v.1.15,2013-04-11 01:38:00,
2013-04-10 19:40:00,35.8,19.9,30.29,SE,145,0.0,0.0,52,0.00,,,0.19,Wunderground v.1.15,2013-04-11 01:40:00,
2013-04-10 19:44:00,35.8,20.3,30.29,SE,145,0.0,0.0,53,0.00,,,0.19,Wunderground v.1.15,2013-04-11 01:44:00,
2013-04-10 19:48:00,35.6,20.6,30.29,SE,140,0.0,0.0,54,0.00,,,0.19,Wunderground v.1.15,2013-04-11 01:48:00,
2013-04-10 19:50:00,35.6,21.0,30.29,SE,140,0.0,0.0,55,0.00,,,0.19,Wunderground v.1.15,2013-04-11 01:50:00,
2013-04-10 19:54:00,35.5,21.3,30.29,SE,140,0.0,1.0,56,0.00,,,0.19,Wunderground v.1.15,2013-04-11 01:54:00,
2013-04-10 19:56:00,35.3,21.6,30.29,SE,140,0.0,1.0,57,0.00,,,0.19,Wunderground v.1.15,2013-04-11 01:56:00,
2013-04-10 19:58:00,35.3,21.6,30.29,SE,140,0.0,1.0,57,0.00,,,0.19,Wunderground v.1.15,2013-04-11 01:58:00,
2013-04-10 20:00:00,35.2,21.9,30.29,SE,140,0.0,0.0,58,0.00,,,0.19,Wunderground v.1.15,2013-04-11 02:00:00,
2013-04-10 20:06:00,34.7,21.8,30.30,SE,140,0.0,1.0,59,0.00,,,0.19,Wunderground v.1.15,2013-04-11 02:06:00,
2013-04-10 20:08:00,34.6,22.1,30.30,SE,140,0.0,1.0,60,0.00,,,0.19,Wunderground v.1.15,2013-04-11 02:08:00,
2013-04-10 20:12:00,34.4,22.3,30.30,SE,140,0.0,0.0,61,0.00,,,0.19,Wunderground v.1.15,2013-04-11 02:12:00,
2013-04-10 20:14:00,34.3,22.6,30.30,SE,140,0.0,0.0,62,0.00,,,0.19,Wunderground v.1.15,2013-04-11 02:14:00,
2013-04-10 20:16:00,34.1,22.4,30.29,SE,140,0.0,0.0,62,0.00,,,0.19,Wunderground v.1.15,2013-04-11 02:16:00,
2013-04-10 20:20:00,34.0,22.3,30.29,SE,140,0.0,0.0,62,0.00,,,0.19,Wunderground v.1.15,2013-04-11 02:20:00,
2013-04-10 20:22:00,34.0,22.0,30.29,SE,126,0.0,0.0,61,0.00,,,0.19,Wunderground v.1.15,2013-04-11 02:22:00,
2013-04-10 20:26:00,34.1,21.7,30.29,ESE,111,1.0,2.0,60,0.00,,,0.19,Wunderground v.1.15,2013-04-11 02:26:00,
2013-04-10 20:28:00,34.1,21.7,30.29,ESE,115,1.0,2.0,60,0.00,,,0.19,Wunderground v.1.15,2013-04-11 02:28:00,
2013-04-10 20:30:00,34.1,21.7,30.29,ESE,114,1.0,1.0,60,0.00,,,0.19,Wunderground v.1.15,2013-04-11 02:30:00,
2013-04-10 20:32:00,34.1,21.7,30.29,ESE,115,1.0,3.0,60,0.00,,,0.19,Wunderground v.1.15,2013-04-11 02:32:00,
2013-04-10 20:36:00,34.0,21.6,30.29,ESE,115,1.0,3.0,60,0.00,,,0.19,Wunderground v.1.15,2013-04-11 02:36:00,
2013-04-10 20:38:00,34.0,21.6,30.29,ESE,115,1.0,3.0,60,0.00,,,0.19,Wunderground v.1.15,2013-04-11 02:38:00,
2013-04-10 20:40:00,33.8,21.4,30.29,ESE,115,1.0,2.0,60,0.00,,,0.19,Wunderground v.1.15,2013-04-11 02:40:00,
2013-04-10 20:42:00,33.8,21.4,30.29,ESE,115,0.0,2.0,60,0.00,,,0.19,Wunderground v.1.15,2013-04-11 02:42:00,
2013-04-10 20:48:00,33.7,22.1,30.29,ESE,115,0.0,2.0,62,0.00,,,0.19,Wunderground v.1.15,2013-04-11 02:48:00,
2013-04-10 20:52:00,33.4,21.8,30.29,ESE,115,0.0,1.0,62,0.00,,,0.19,Wunderground v.1.15,2013-04-11 02:52:00,
2013-04-10 20:54:00,33.4,22.1,30.29,ESE,115,0.0,1.0,63,0.00,,,0.19,Wunderground v.1.15,2013-04-11 02:54:00,
2013-04-10 21:00:00,32.9,22.4,30.29,ESE,115,0.0,0.0,65,0.00,,,0.19,Wunderground v.1.15,2013-04-11 03:00:00,
2013-04-10 21:04:00,32.8,22.3,30.31,ESE,115,0.0,0.0,65,0.00,,,0.19,Wunderground v.1.15,2013-04-11 03:04:00,
2013-04-10 21:06:00,32.7,22.6,30.31,ESE,115,0.0,0.0,66,0.00,,,0.19,Wunderground v.1.15,2013-04-11 03:06:00,
2013-04-10 21:10:00,32.5,22.4,30.31,ESE,115,0.0,3.0,66,0.00,,,0.19,Wunderground v.1.15,2013-04-11 03:10:00,
2013-04-10 21:12:00,32.4,22.3,30.31,ESE,115,0.0,3.0,66,0.00,,,0.19,Wunderground v.1.15,2013-04-11 03:12:00,
2013-04-10 21:14:00,32.4,22.3,30.31,ESE,115,0.0,3.0,66,0.00,,,0.19,Wunderground v.1.15,2013-04-11 03:14:00,
2013-04-10 21:18:00,32.4,22.3,30.30,ESE,115,1.0,3.0,66,0.00,,,0.19,Wunderground v.1.15,2013-04-11 03:18:00,
2013-04-10 21:20:00,32.4,22.3,30.30,ESE,115,1.0,1.0,66,0.00,,,0.19,Wunderground v.1.15,2013-04-11 03:20:00,
2013-04-10 21:22:00,32.4,22.3,30.30,ESE,115,0.0,1.0,66,0.00,,,0.19,Wunderground v.1.15,2013-04-11 03:22:00,
2013-04-10 21:28:00,32.2,22.1,30.30,ESE,115,0.0,3.0,66,0.00,,,0.19,Wunderground v.1.15,2013-04-11 03:28:00,
2013-04-10 21:30:00,32.2,22.1,30.31,ESE,115,0.0,2.0,66,0.00,,,0.19,Wunderground v.1.15,2013-04-11 03:30:00,
2013-04-10 21:32:00,32.2,22.1,30.31,ESE,115,0.0,2.0,66,0.00,,,0.19,Wunderground v.1.15,2013-04-11 03:32:00,
2013-04-10 21:36:00,32.1,22.0,30.31,ESE,115,0.0,2.0,66,0.00,,,0.19,Wunderground v.1.15,2013-04-11 03:36:00,
2013-04-10 21:40:00,32.1,22.4,30.31,ESE,115,0.0,0.0,67,0.00,,,0.19,Wunderground v.1.15,2013-04-11 03:40:00,
2013-04-10 21:42:00,31.9,22.5,30.31,ESE,115,0.0,0.0,68,0.00,,,0.19,Wunderground v.1.15,2013-04-11 03:42:00,
2013-04-10 21:44:00,31.8,22.4,30.31,ESE,115,0.0,0.0,68,0.00,,,0.19,Wunderground v.1.15,2013-04-11 03:44:00,
2013-04-10 21:50:00,31.8,22.4,30.31,ESE,115,0.0,0.0,68,0.00,,,0.19,Wunderground v.1.15,2013-04-11 03:50:00,
2013-04-10 21:52:00,31.8,22.8,30.31,ESE,115,1.0,3.0,69,0.00,,,0.19,Wunderground v.1.15,2013-04-11 03:52:00,
2013-04-10 21:58:00,31.6,22.2,30.31,ESE,115,1.0,3.0,68,0.00,,,0.19,Wunderground v.1.15,2013-04-11 03:58:00,
2013-04-10 22:00:00,31.6,22.2,30.30,ESE,115,1.0,1.0,68,0.00,,,0.19,Wunderground v.1.15,2013-04-11 04:00:00,
2013-04-10 22:02:00,31.6,22.2,30.30,ESE,115,1.0,1.0,68,0.00,,,0.19,Wunderground v.1.15,2013-04-11 04:02:00,
2013-04-10 22:08:00,31.5,22.1,30.30,SE,130,1.0,1.0,68,0.00,,,0.19,Wunderground v.1.15,2013-04-11 04:08:00,
2013-04-10 22:12:00,31.5,22.1,30.30,SSE,151,1.0,1.0,68,0.00,,,0.19,Wunderground v.1.15,2013-04-11 04:12:00,
2013-04-10 22:16:00,31.6,21.9,30.31,SSE,159,1.0,4.0,67,0.00,,,0.19,Wunderground v.1.15,2013-04-11 04:16:00,
2013-04-10 22:18:00,31.6,21.9,30.31,SSE,148,1.0,4.0,67,0.00,,,0.19,Wunderground v.1.15,2013-04-11 04:18:00,
2013-04-10 22:22:00,31.8,22.1,30.31,SE,132,2.0,4.0,67,0.00,,,0.19,Wunderground v.1.15,2013-04-11 04:22:00,
2013-04-10 22:24:00,31.8,22.1,30.31,SSE,147,2.0,4.0,67,0.00,,,0.19,Wunderground v.1.15,2013-04-11 04:24:00,
2013-04-10 22:28:00,31.6,21.9,30.31,SSE,147,1.0,4.0,67,0.00,,,0.19,Wunderground v.1.15,2013-04-11 04:28:00,
2013-04-10 22:30:00,31.6,21.9,30.31,SSE,153,1.0,1.0,67,0.00,,,0.19,Wunderground v.1.15,2013-04-11 04:30:00,
2013-04-10 22:32:00,31.6,22.2,30.30,SSE,154,1.0,2.0,68,0.00,,,0.19,Wunderground v.1.15,2013-04-11 04:32:00,
2013-04-10 22:38:00,31.6,22.2,30.30,ESE,120,1.0,4.0,68,0.00,,,0.19,Wunderground v.1.15,2013-04-11 04:38:00,
2013-04-10 22:40:00,31.6,22.2,30.30,ESE,121,1.0,1.0,68,0.00,,,0.19,Wunderground v.1.15,2013-04-11 04:40:00,
2013-04-10 22:42:00,31.6,22.2,30.30,SE,127,1.0,1.0,68,0.00,,,0.19,Wunderground v.1.15,2013-04-11 04:42:00,
2013-04-10 22:44:00,31.6,22.2,30.30,ESE,121,1.0,1.0,68,0.00,,,0.19,Wunderground v.1.15,2013-04-11 04:44:00,
2013-04-10 22:46:00,31.5,22.1,30.30,ESE,121,1.0,1.0,68,0.00,,,0.19,Wunderground v.1.15,2013-04-11 04:46:00,
2013-04-10 22:50:00,31.5,22.1,30.30,SE,124,1.0,3.0,68,0.00,,,0.19,Wunderground v.1.15,2013-04-11 04:50:00,
2013-04-10 22:54:00,31.5,22.1,30.30,SE,124,1.0,3.0,68,0.00,,,0.19,Wunderground v.1.15,2013-04-11 04:54:00,
2013-04-10 22:58:00,31.5,22.1,30.30,ESE,111,1.0,3.0,68,0.00,,,0.19,Wunderground v.1.15,2013-04-11 04:58:00,
2013-04-10 23:00:00,31.3,22.0,30.30,ESE,110,1.0,1.0,68,0.00,,,0.19,Wunderground v.1.15,2013-04-11 05:00:00,
2013-04-10 23:04:00,31.3,22.0,30.30,SSE,147,1.0,1.0,68,0.00,,,0.19,Wunderground v.1.15,2013-04-11 05:04:00,
2013-04-10 23:10:00,31.2,21.9,30.30,ESE,115,1.0,1.0,68,0.00,,,0.19,Wunderground v.1.15,2013-04-11 05:10:00,
2013-04-10 23:12:00,31.2,21.5,30.30,ESE,106,1.0,1.0,67,0.00,,,0.19,Wunderground v.1.15,2013-04-11 05:12:00,
2013-04-10 23:14:00,31.2,21.5,30.30,ESE,106,1.0,1.0,67,0.00,,,0.19,Wunderground v.1.15,2013-04-11 05:14:00,
2013-04-10 23:18:00,31.0,21.3,30.28,ESE,109,1.0,1.0,67,0.00,,,0.19,Wunderground v.1.15,2013-04-11 05:18:00,
2013-04-10 23:22:00,31.0,21.3,30.28,ESE,109,1.0,1.0,67,0.00,,,0.19,Wunderground v.1.15,2013-04-11 05:22:00,
2013-04-10 23:28:00,30.9,20.5,30.28,ESE,109,0.0,1.0,65,0.00,,,0.19,Wunderground v.1.15,2013-04-11 05:28:00,
2013-04-10 23:30:00,30.9,20.5,30.28,ESE,109,0.0,0.0,65,0.00,,,0.19,Wunderground v.1.15,2013-04-11 05:30:00,
2013-04-10 23:34:00,30.9,20.5,30.28,East,101,0.0,0.0,65,0.00,,,0.19,Wunderground v.1.15,2013-04-11 05:34:00,
2013-04-10 23:36:00,30.9,20.5,30.28,East,101,1.0,4.0,65,0.00,,,0.19,Wunderground v.1.15,2013-04-11 05:36:00,
2013-04-10 23:40:00,31.2,20.1,30.28,East,94,1.0,3.0,63,0.00,,,0.19,Wunderground v.1.15,2013-04-11 05:40:00,
2013-04-10 23:48:00,31.5,20.0,30.26,SE,130,2.0,3.0,62,0.00,,,0.19,Wunderground v.1.15,2013-04-11 05:48:00,
2013-04-10 23:50:00,31.5,20.0,30.26,SE,130,2.0,2.0,62,0.00,,,0.19,Wunderground v.1.15,2013-04-11 05:50:00,
2013-04-10 23:58:00,31.5,20.0,30.26,SE,130,1.0,2.0,62,0.00,,,0.19,Wunderground v.1.15,2013-04-11 05:58:00,